Address 0xf3eab2365c8689d7d429e9cf03c78b29f07907b1 12

 
Txn Hash Method
Block
From
To
Value [Txn Fee]
0xf47948252c10459640ae89044c3b2f6d050c495aa8c1e45c7d30cd0023c39ccc0x06e7572247168802022-01-17 2:55:1313 hrs 7 mins ago0xf3eab2365c8689d7d429e9cf03c78b29f07907b1OUT 0xe8c97bf6d084880de38aec1a56d97ed9fdfa0c9b0 ETH0.002033903532 ETH
0x63447cc2ec77585351ccc4d41505711f69ae3fcd9bce4f68ff23ecbeeab7a82bApprove47168702022-01-17 2:55:1313 hrs 7 mins ago0xf3eab2365c8689d7d429e9cf03c78b29f07907b1OUT 0xff970a61a04b1ca14834a43f5de4533ebddb5cc80 ETH0.001147446198 ETH
0xfc3f0feda4bd6b2e90aa44139ac6ff3707d5c4acd7eaca9c35facdc9174d68750x06e7572246992102022-01-16 14:40:091 day 1 hr ago0xf3eab2365c8689d7d429e9cf03c78b29f07907b1OUT 0xe8c97bf6d084880de38aec1a56d97ed9fdfa0c9b0.03 ETH0.001550373455 ETH
0xfa3a93e3371e01bd3f24219e31d02dce93afa4525db8f76dfe3f812ce475ffcc0x06e7572246589022022-01-15 5:37:142 days 10 hrs ago0xf3eab2365c8689d7d429e9cf03c78b29f07907b1OUT 0xe8c97bf6d084880de38aec1a56d97ed9fdfa0c9b0.05 ETH0.002104323594 ETH
0x7cf40e1b5e50d877d59fee039b81b3c2f8895b77ede4319d109a264336c8ee25Swap And Send43257322022-01-04 7:48:1413 days 8 hrs ago0xf3eab2365c8689d7d429e9cf03c78b29f07907b1OUT 0x33ceb27b39d2bb7d2e61f7564d3df293440204170.16 ETH0.001080214704 ETH
0x7d0c266050e81c5e0b2abca837c0484a496e5d896133233a25ad635542b32919Withdraw43257162022-01-04 7:47:1213 days 8 hrs ago0xf3eab2365c8689d7d429e9cf03c78b29f07907b1OUT 0x82af49447d8a07e3bd95bd0d56f35241523fbab10 ETH0.000667279115 ETH
0x36ddabff06fdc8e322d0fc163ec0840393e34242216d7bba1e1a2086694acc39Swap43257062022-01-04 7:46:4413 days 8 hrs ago0xf3eab2365c8689d7d429e9cf03c78b29f07907b1OUT 0x652d27c0f72771ce5c76fd400edd61b406ac6d970 ETH0.000774785375 ETH
0x884ea79ecba66f396858d152b0350ac0adb9e563414df686e8e53674967c6814Remove Liquidity43256832022-01-04 7:46:4413 days 8 hrs ago0xf3eab2365c8689d7d429e9cf03c78b29f07907b1OUT 0x652d27c0f72771ce5c76fd400edd61b406ac6d970 ETH0.001175677034 ETH
0xb67ce52813fce5c21880adadfb81733d9e6d7a3c425840b53af5609f795456e7Swap And Send42676562022-01-02 14:55:4515 days 1 hr ago0xf3eab2365c8689d7d429e9cf03c78b29f07907b1OUT 0x33ceb27b39d2bb7d2e61f7564d3df293440204170.9 ETH0.00086473653 ETH
0xb9156db1cdb28e3f995829f37a7369167d79b86510311713d9271448ed8df1f7Withdraw42676422022-01-02 14:55:4515 days 1 hr ago0xf3eab2365c8689d7d429e9cf03c78b29f07907b1OUT 0x82af49447d8a07e3bd95bd0d56f35241523fbab10 ETH0.000534855232 ETH
0x154868125f1eec7449608fa1388034c4b9ecd5f55fa87dc3490e35c6d8de9540Swap42675922022-01-02 14:53:2615 days 1 hr ago0xf3eab2365c8689d7d429e9cf03c78b29f07907b1OUT 0x652d27c0f72771ce5c76fd400edd61b406ac6d970 ETH0.000623209571 ETH
0x457dc53505f7cd6d445adf0ce8ae4b8a5bc90defce1efa40e945689817e52a68Remove Liquidity42675832022-01-02 14:52:2515 days 1 hr ago0xf3eab2365c8689d7d429e9cf03c78b29f07907b1OUT 0x652d27c0f72771ce5c76fd400edd61b406ac6d970 ETH0.000785196743 ETH
0x58baebe4004525e2da950401753d4e17d1571a396e3268c6ae6b3eb4d804200bApprove42675722022-01-02 14:51:4315 days 1 hr ago0xf3eab2365c8689d7d429e9cf03c78b29f07907b1OUT0x59745774ed5eff903e615f5a2282cae03484985a0 ETH0.000751686574 ETH
0x7e2fc97f4a503519a55f59f8f1598cf69ab949b3f462cca6a8e2fc2d7b5a758cAdd Liquidity42646202022-01-02 12:13:1715 days 3 hrs ago0xf3eab2365c8689d7d429e9cf03c78b29f07907b1OUT 0x652d27c0f72771ce5c76fd400edd61b406ac6d970 ETH0.001137082927 ETH
0x32ebd9cdd85a538543492b01631240f2be549aa7e4177708bbc8e88a0916f0f7Approve42646152022-01-02 12:13:1715 days 3 hrs ago0xf3eab2365c8689d7d429e9cf03c78b29f07907b1OUT 0xda7c0de432a9346bb6e96ac74e3b61a36d8a77eb0 ETH0.000753751141 ETH
0x342aabc4b396931d4d490f2c843b2214bb579ff7c20038929e33ebcfa058cab0Swap42646132022-01-02 12:13:1715 days 3 hrs ago0xf3eab2365c8689d7d429e9cf03c78b29f07907b1OUT 0x652d27c0f72771ce5c76fd400edd61b406ac6d970 ETH0.000781547762 ETH
0x5c4ec9e79851aa1b8c25a47a3317e2ffec94f3af0e4f2721ed5341ea4fe9ec23Approve42646112022-01-02 12:12:4415 days 3 hrs ago0xf3eab2365c8689d7d429e9cf03c78b29f07907b1OUT 0x82af49447d8a07e3bd95bd0d56f35241523fbab10 ETH0.00075419689 ETH
0x31c4bba777689dd0bea0d5e7396195faffe199904661ff3721fb009614de5c50Deposit42645912022-01-02 12:10:5415 days 3 hrs ago0xf3eab2365c8689d7d429e9cf03c78b29f07907b1OUT 0x82af49447d8a07e3bd95bd0d56f35241523fbab11.03 ETH0.000675531803 ETH
0x9fc3c37d4228ec6e0191048c60d8e11fd735a1d089a5749fdc37406d0f085b0aAdd Liquidity42636792022-01-02 11:13:3615 days 4 hrs ago0xf3eab2365c8689d7d429e9cf03c78b29f07907b1OUT 0xa5a33ab9063395a90ccbea2d86a62eccf27b57420 ETH0.001162429418 ETH
0x9e40237d7b0007e0d4e8f2191bbf7883c43d29b247d679702c847b1fac412401Approve42635802022-01-02 11:06:4015 days 4 hrs ago0xf3eab2365c8689d7d429e9cf03c78b29f07907b1OUT 0x46ae9bab8cea96610807a275ebd36f8e916b5c610 ETH0.000767627916 ETH
0x0d6304c9e36e37398910e58f32718759c32d258a247f9c2e68ad7d9c62aa17d8Swap42635642022-01-02 11:06:4015 days 4 hrs ago0xf3eab2365c8689d7d429e9cf03c78b29f07907b1OUT 0xa5a33ab9063395a90ccbea2d86a62eccf27b57420 ETH0.000797984109 ETH
0xe8f29c0e3a90003421812b4b291839d8e193a9980746d6dbef226f8847104afbApprove42635532022-01-02 11:05:1715 days 4 hrs ago0xf3eab2365c8689d7d429e9cf03c78b29f07907b1OUT 0xda10009cbd5d07dd0cecc66161fc93d7c9000da10 ETH0.000764276603 ETH
0x395b2ff8ca60f1cec3cb6f202f18076d7c899e99cf561e015980fcbc23b35a5dMulticall42633052022-01-02 10:48:3815 days 5 hrs ago0xf3eab2365c8689d7d429e9cf03c78b29f07907b1OUT 0x68b3465833fb72a70ecdf485e0e4c7bd8665fc450 ETH0.000962363496 ETH
0xffb606fdea2db63e3c5242e2f8392d999f2991186b1d6b15eb35a4198b53d721Approve42632902022-01-02 10:48:1815 days 5 hrs ago0xf3eab2365c8689d7d429e9cf03c78b29f07907b1OUT 0xfd086bc7cd5c481dcc9c85ebe478a1c0b69fcbb90 ETH0.000775382898 ETH
0xb85f732a82244deed4bb1d6da7ef7c3a53b522b31b98db08e32d855b6f7bc32dAdd Liquidity42270742022-01-01 7:05:0516 days 8 hrs ago0xf3eab2365c8689d7d429e9cf03c78b29f07907b1OUT 0x10541b07d8ad2647dc6cd67abd4c03575dade2610 ETH0.0012096179 ETH
[ Download CSV Export 
Parent Txn Hash Block From To Value
Loading

Contract Name:
0 ETH

Compiler Version
0

Optimization Enabled:
0 ETH

Other Settings:
-NA-
Block Transaction Gas Used Reward
Age Block Fee Address BC Fee Address Voting Power Jailed Incoming
Block Uncle Number Difficulty Gas Used Reward
Loading
Loading
Make sure to use the "Vote Down" button for any spammy posts, and the "Vote Up" for interesting conversations.